Time;durP1;ratioP1;P1;durP2;ratioP2;P2;SDS_P1;SDS_P2;PMS_P1;PMS_P2;Temp;Humidity;BMP_temperature;BMP_pressure;BME280_temperature;BME280_humidity;BME280_pressure;Samples;Min_cycle;Max_cycle;Signal;HPM_P1;HPM_P2
2023/12/30 00:01:35;;;;;;;6.53;1.55;;;6.20;99.90;;;;;;5091728;28;20062;-46
2023/12/30 00:04:01;;;;;;;8.93;2.00;;;6.10;99.90;;;;;;5092782;28;20056;-47
2023/12/30 00:06:27;;;;;;;7.53;1.58;;;6.20;99.90;;;;;;5092592;28;20047;-46
2023/12/30 00:08:52;;;;;;;6.03;1.27;;;5.80;99.90;;;;;;5092529;28;20063;-46
2023/12/30 00:11:18;;;;;;;7.93;1.80;;;6.00;99.90;;;;;;5092189;28;20043;-45
2023/12/30 00:13:43;;;;;;;7.63;1.58;;;6.20;99.90;;;;;;5092909;28;20398;-44
2023/12/30 00:16:10;;;;;;;10.02;1.52;;;6.00;99.90;;;;;;5092251;28;20053;-46
2023/12/30 00:18:36;;;;;;;10.23;1.88;;;5.90;99.90;;;;;;5073236;28;20081;-46
2023/12/30 00:21:02;;;;;;;7.78;1.85;;;6.00;99.90;;;;;;5086425;28;20036;-46
2023/12/30 00:23:28;;;;;;;8.98;1.45;;;5.90;99.90;;;;;;5092412;28;20546;-45
2023/12/30 00:25:54;;;;;;;10.93;1.80;;;5.80;99.90;;;;;;5091890;28;20054;-45
2023/12/30 00:28:21;;;;;;;10.30;1.50;;;5.80;99.90;;;;;;5091943;28;20047;-45
2023/12/30 00:30:47;;;;;;;8.38;1.63;;;5.90;99.90;;;;;;5073754;28;20079;-45
2023/12/30 00:33:13;;;;;;;6.85;1.60;;;5.80;99.90;;;;;;5091075;28;20044;-44
2023/12/30 00:35:39;;;;;;;11.30;1.70;;;5.80;99.90;;;;;;5090586;28;20037;-46
2023/12/30 00:38:04;;;;;;;9.48;1.90;;;5.80;99.90;;;;;;5090909;28;20036;-46
2023/12/30 00:40:30;;;;;;;12.23;2.05;;;5.70;99.90;;;;;;5081659;28;20040;-46
2023/12/30 00:42:55;;;;;;;10.75;1.67;;;5.80;99.90;;;;;;5081461;28;20044;-46
2023/12/30 00:45:21;;;;;;;10.43;1.98;;;5.70;99.90;;;;;;5084409;28;20174;-46
2023/12/30 00:47:46;;;;;;;11.82;1.73;;;6.10;99.90;;;;;;5091179;28;20040;-47
2023/12/30 00:50:13;;;;;;;10.02;2.30;;;5.90;99.90;;;;;;5090535;28;20040;-45
2023/12/30 00:52:38;;;;;;;8.95;1.42;;;5.60;99.90;;;;;;5088359;28;20540;-45
2023/12/30 00:55:04;;;;;;;10.00;1.90;;;5.80;99.90;;;;;;5088434;28;20036;-46
2023/12/30 00:57:30;;;;;;;11.38;2.65;;;5.80;99.90;;;;;;5092005;28;20101;-45
2023/12/30 00:59:56;;;;;;;9.10;1.85;;;5.60;99.90;;;;;;5091743;28;20040;-46
2023/12/30 01:02:21;;;;;;;6.85;1.40;;;5.80;99.90;;;;;;5081951;28;20043;-46
2023/12/30 01:04:47;;;;;;;10.40;1.77;;;5.70;99.90;;;;;;5081256;28;20076;-45
2023/12/30 01:07:13;;;;;;;10.75;1.83;;;5.80;99.90;;;;;;5080485;28;20036;-47
2023/12/30 01:09:38;;;;;;;10.55;1.92;;;5.80;99.90;;;;;;5080850;28;20044;-45
2023/12/30 01:12:04;;;;;;;8.52;1.30;;;5.70;99.90;;;;;;5081791;28;20032;-46
2023/12/30 01:14:30;;;;;;;13.40;2.10;;;5.80;99.90;;;;;;5081986;28;20048;-47
2023/12/30 01:16:55;;;;;;;11.75;1.77;;;5.70;99.90;;;;;;5082292;28;20480;-45
2023/12/30 01:19:21;;;;;;;10.23;1.58;;;5.80;99.90;;;;;;5080771;28;20048;-46
2023/12/30 01:21:47;;;;;;;12.35;1.90;;;5.60;99.90;;;;;;5080246;28;20110;-47
2023/12/30 01:24:13;;;;;;;8.75;1.40;;;5.70;99.90;;;;;;5079600;28;20119;-47
2023/12/30 01:26:39;;;;;;;9.48;1.77;;;;;;;;;;5082653;28;20503;-45
2023/12/30 01:29:05;;;;;;;6.78;1.30;;;;;;;;;;5082193;28;20036;-45
2023/12/30 01:31:31;;;;;;;10.50;1.60;;;;;;;;;;5080715;28;20455;-44
2023/12/30 01:33:57;;;;;;;10.55;1.88;;;5.50;99.90;;;;;;5081667;28;20500;-46
2023/12/30 01:36:22;;;;;;;7.40;1.63;;;5.50;99.90;;;;;;5081464;28;20052;-45
2023/12/30 01:38:48;;;;;;;8.90;1.77;;;5.50;99.90;;;;;;5080731;28;20044;-45
2023/12/30 01:41:14;;;;;;;7.60;1.77;;;5.40;99.90;;;;;;5079797;28;20055;-45
2023/12/30 01:43:40;;;;;;;6.90;1.45;;;;;;;;;;5081597;28;20457;-46
2023/12/30 01:46:07;;;;;;;9.57;1.67;;;;;;;;;;5079626;28;20034;-45
2023/12/30 01:48:34;;;;;;;8.23;2.13;;;;;;;;;;5081074;28;20040;-45
2023/12/30 01:51:02;;;;;;;4.85;1.30;;;5.30;99.90;;;;;;5081117;28;21102;-45
2023/12/30 01:53:31;;;;;;;13.10;2.05;;;5.30;99.90;;;;;;5080698;28;20123;-47
2023/12/30 01:55:57;;;;;;;11.90;1.50;;;5.40;99.90;;;;;;5079390;28;20044;-45
2023/12/30 01:58:23;;;;;;;7.32;1.40;;;;;;;;;;5086147;28;20054;-46
2023/12/30 02:00:54;;;;;;;7.95;1.30;;;5.30;99.90;;;;;;5084029;28;20036;-45
2023/12/30 02:03:21;;;;;;;5.22;1.30;;;5.00;99.90;;;;;;5087584;28;20032;-44
2023/12/30 02:05:47;;;;;;;7.80;1.65;;;5.00;99.90;;;;;;5085819;28;20039;-44
2023/12/30 02:08:14;;;;;;;11.32;1.58;;;5.00;99.90;;;;;;5083405;28;20070;-45
2023/12/30 02:10:40;;;;;;;14.48;1.58;;;5.10;99.90;;;;;;5082730;28;20040;-45
2023/12/30 02:13:06;;;;;;;9.23;1.55;;;5.10;99.90;;;;;;5078578;28;20067;-47
2023/12/30 02:15:32;;;;;;;11.00;2.15;;;5.10;99.90;;;;;;5083029;28;20039;-45
2023/12/30 02:17:58;;;;;;;8.38;1.50;;;5.00;99.90;;;;;;5084014;28;20714;-45
2023/12/30 02:20:24;;;;;;;11.60;1.70;;;5.00;99.90;;;;;;5082608;28;20044;-44
2023/12/30 02:22:50;;;;;;;7.07;1.75;;;5.00;99.90;;;;;;5084589;28;20040;-46
2023/12/30 02:25:16;;;;;;;7.80;1.80;;;5.00;99.90;;;;;;5083142;28;20032;-45
2023/12/30 02:27:43;;;;;;;8.35;1.52;;;5.00;99.90;;;;;;5083370;28;20052;-45
2023/12/30 02:30:09;;;;;;;7.18;1.77;;;5.00;99.90;;;;;;5083558;28;20040;-45
2023/12/30 02:32:35;;;;;;;12.15;1.80;;;5.00;99.90;;;;;;5084277;28;20711;-45
2023/12/30 02:35:01;;;;;;;11.90;2.25;;;5.00;99.90;;;;;;5083303;28;20051;-46
2023/12/30 02:37:26;;;;;;;7.05;1.50;;;5.00;99.90;;;;;;5083256;28;20513;-45
2023/12/30 02:39:52;;;;;;;9.00;2.17;;;5.00;99.90;;;;;;5066580;28;20047;-44
2023/12/30 02:42:17;;;;;;;12.30;1.80;;;4.80;99.90;;;;;;5084140;28;20060;-45
2023/12/30 02:44:43;;;;;;;13.13;1.85;;;5.10;99.90;;;;;;5083353;28;20378;-46
2023/12/30 02:47:08;;;;;;;11.82;2.08;;;5.20;99.90;;;;;;5084158;28;20154;-49
2023/12/30 02:49:34;;;;;;;8.18;1.77;;;5.10;99.90;;;;;;5082668;28;20461;-45
2023/12/30 02:52:00;;;;;;;14.38;1.73;;;4.90;99.90;;;;;;5082538;28;20078;-45
2023/12/30 02:54:27;;;;;;;6.03;1.92;;;5.00;99.90;;;;;;5084111;28;20043;-45
2023/12/30 02:56:52;;;;;;;13.50;1.80;;;5.20;99.90;;;;;;5081305;28;20470;-46
2023/12/30 02:59:18;;;;;;;9.10;1.58;;;4.80;99.90;;;;;;5083558;28;20047;-45
2023/12/30 03:01:43;;;;;;;12.57;1.70;;;5.00;99.90;;;;;;5082721;28;20119;-45
2023/12/30 03:04:09;;;;;;;8.95;1.63;;;5.10;99.90;;;;;;5085059;28;20040;-45
2023/12/30 03:06:35;;;;;;;6.78;1.58;;;5.10;99.90;;;;;;5085817;28;20090;-47
2023/12/30 03:09:01;;;;;;;11.02;1.70;;;5.00;99.90;;;;;;5066465;28;20527;-45
2023/12/30 03:11:27;;;;;;;12.40;1.80;;;4.80;99.90;;;;;;5083389;28;20051;-44
2023/12/30 03:13:52;;;;;;;11.70;2.25;;;5.10;99.90;;;;;;5081986;28;20496;-45
2023/12/30 03:16:18;;;;;;;10.13;1.80;;;5.10;99.90;;;;;;5082699;28;20044;-45
2023/12/30 03:18:44;;;;;;;10.80;2.22;;;5.30;99.90;;;;;;5081674;28;20040;-46
2023/12/30 03:21:13;;;;;;;10.23;1.50;;;5.20;99.90;;;;;;5081873;28;20142;-44
2023/12/30 03:23:39;;;;;;;7.20;1.77;;;4.80;99.90;;;;;;5082593;28;20067;-46
2023/12/30 03:26:06;;;;;;;9.90;2.20;;;4.90;99.90;;;;;;5083287;28;20446;-47
2023/12/30 03:28:32;;;;;;;7.38;1.30;;;4.80;99.90;;;;;;5083669;28;20036;-46
2023/12/30 03:30:57;;;;;;;10.10;1.77;;;4.90;99.90;;;;;;5083081;28;20046;-45
2023/12/30 03:33:24;;;;;;;11.30;2.28;;;5.20;99.90;;;;;;5081799;28;20138;-46
2023/12/30 03:35:50;;;;;;;12.05;2.13;;;5.10;99.90;;;;;;5083210;28;20081;-45
2023/12/30 03:38:15;;;;;;;11.88;2.45;;;5.20;99.90;;;;;;5080302;28;20325;-45
2023/12/30 03:40:41;;;;;;;8.13;1.50;;;4.90;99.90;;;;;;5047250;28;20070;-44
2023/12/30 03:43:06;;;;;;;11.10;1.60;;;5.10;99.90;;;;;;5081507;28;20186;-45
2023/12/30 03:45:32;;;;;;;14.95;1.88;;;5.10;99.90;;;;;;5085802;28;20499;-46
2023/12/30 03:47:58;;;;;;;10.25;2.20;;;5.00;99.90;;;;;;5081739;28;20036;-46
2023/12/30 03:50:23;;;;;;;16.10;2.40;;;5.00;99.90;;;;;;5082322;28;20040;-45
2023/12/30 03:52:50;;;;;;;10.20;1.90;;;5.10;99.90;;;;;;5081514;28;20048;-46
2023/12/30 03:55:15;;;;;;;11.43;1.95;;;5.10;99.90;;;;;;5083640;28;20126;-45
2023/12/30 03:57:41;;;;;;;10.35;1.75;;;5.20;99.90;;;;;;5082687;28;20170;-44
2023/12/30 04:00:07;;;;;;;11.05;1.83;;;5.10;99.90;;;;;;5082175;28;20044;-45
2023/12/30 04:02:33;;;;;;;11.85;2.42;;;5.20;99.90;;;;;;5081450;28;20044;-47
2023/12/30 04:04:58;;;;;;;14.93;2.10;;;5.20;99.90;;;;;;5083571;28;20112;-45
2023/12/30 04:07:24;;;;;;;14.43;2.17;;;5.10;99.90;;;;;;5083450;28;20032;-45
2023/12/30 04:09:49;;;;;;;9.73;1.90;;;5.30;99.90;;;;;;5083271;28;20036;-45
2023/12/30 04:12:15;;;;;;;6.78;1.63;;;5.30;99.90;;;;;;5082213;28;20504;-46
2023/12/30 04:14:40;;;;;;;10.75;1.52;;;5.30;99.90;;;;;;5084238;28;20031;-44
2023/12/30 04:17:06;;;;;;;14.82;2.03;;;4.90;99.90;;;;;;5080642;28;20039;-44
2023/12/30 04:19:32;;;;;;;12.95;1.73;;;5.10;99.90;;;;;;5082577;28;20039;-46
2023/12/30 04:21:58;;;;;;;9.25;1.95;;;4.90;99.90;;;;;;5081689;28;20048;-46
2023/12/30 04:24:23;;;;;;;10.57;1.70;;;5.20;99.90;;;;;;5083101;28;20070;-45
2023/12/30 04:26:50;;;;;;;13.07;2.25;;;5.10;99.90;;;;;;5082747;28;20058;-46
2023/12/30 04:29:15;;;;;;;9.50;1.70;;;5.10;99.90;;;;;;5079315;28;20261;-46
2023/12/30 04:31:41;;;;;;;12.40;2.53;;;5.10;99.90;;;;;;5081965;28;20044;-45
2023/12/30 04:34:07;;;;;;;7.85;1.92;;;4.80;99.90;;;;;;5080164;28;20551;-46
2023/12/30 04:36:32;;;;;;;14.02;1.88;;;4.80;99.90;;;;;;5081922;28;20056;-46
2023/12/30 04:38:58;;;;;;;14.73;2.35;;;5.00;99.90;;;;;;5082932;28;20071;-45
2023/12/30 04:41:23;;;;;;;9.90;2.22;;;4.70;99.90;;;;;;5088367;28;20054;-46
2023/12/30 04:43:49;;;;;;;11.70;2.08;;;4.90;99.90;;;;;;5082864;28;20036;-45
2023/12/30 04:46:15;;;;;;;12.68;1.90;;;5.10;99.90;;;;;;5055577;28;20130;-46
2023/12/30 04:48:40;;;;;;;12.45;2.20;;;4.70;99.90;;;;;;5094041;28;20071;-47
2023/12/30 04:51:08;;;;;;;9.50;1.80;;;5.00;99.90;;;;;;5090830;28;20076;-44
2023/12/30 04:53:34;;;;;;;14.82;2.47;;;4.90;99.90;;;;;;5086997;28;20146;-46
2023/12/30 04:55:59;;;;;;;10.40;2.10;;;4.90;99.90;;;;;;5088392;28;20115;-44
2023/12/30 04:58:25;;;;;;;12.07;2.00;;;4.90;99.90;;;;;;5089660;28;20498;-44
2023/12/30 05:00:51;;;;;;;8.65;2.17;;;4.60;99.90;;;;;;5086556;28;20032;-46
2023/12/30 05:03:17;;;;;;;11.75;1.90;;;5.30;99.90;;;;;;5089836;28;20036;-46
2023/12/30 05:05:42;;;;;;;7.78;1.60;;;4.60;99.90;;;;;;5089868;28;20036;-45
2023/12/30 05:08:08;;;;;;;14.30;1.90;;;4.70;99.90;;;;;;5089219;28;20496;-45
2023/12/30 05:10:34;;;;;;;7.55;1.80;;;4.80;99.90;;;;;;5086771;28;20048;-45
2023/12/30 05:13:00;;;;;;;7.93;1.95;;;5.00;99.90;;;;;;5087511;28;20087;-45
2023/12/30 05:15:26;;;;;;;14.32;2.10;;;5.00;99.90;;;;;;5086605;28;20040;-46
2023/12/30 05:17:53;;;;;;;9.65;1.77;;;4.60;99.90;;;;;;5088808;28;20040;-46
2023/12/30 05:20:19;;;;;;;12.63;2.03;;;5.00;99.90;;;;;;5086894;28;20044;-46
2023/12/30 05:22:45;;;;;;;15.13;2.25;;;5.00;99.90;;;;;;5091427;28;20069;-46
2023/12/30 05:25:11;;;;;;;7.68;1.40;;;5.10;99.90;;;;;;5089213;28;20443;-45
2023/12/30 05:27:37;;;;;;;13.52;2.50;;;4.90;99.90;;;;;;5089842;28;20686;-46
2023/12/30 05:30:07;;;;;;;10.45;1.80;;;5.00;99.90;;;;;;5088775;28;20382;-45
2023/12/30 05:32:36;;;;;;;13.30;2.15;;;4.80;99.90;;;;;;5092225;28;20040;-45
2023/12/30 05:35:01;;;;;;;12.68;1.90;;;5.00;99.90;;;;;;5091932;28;20043;-45
2023/12/30 05:37:27;;;;;;;14.15;2.13;;;4.80;99.90;;;;;;5090042;28;20048;-45
2023/12/30 05:39:53;;;;;;;10.82;2.03;;;5.00;99.90;;;;;;5089424;28;20075;-45
2023/12/30 05:42:19;;;;;;;10.85;1.73;;;4.90;99.90;;;;;;5090824;28;20055;-45
2023/12/30 05:44:47;;;;;;;11.20;1.65;;;5.30;99.90;;;;;;5090180;28;20039;-45
2023/12/30 05:47:13;;;;;;;6.53;1.73;;;4.80;99.90;;;;;;5087485;28;20079;-46
2023/12/30 05:49:40;;;;;;;12.50;2.00;;;4.90;99.90;;;;;;5093458;28;20508;-45
2023/12/30 05:52:07;;;;;;;7.35;1.52;;;5.10;99.90;;;;;;5093069;28;20047;-46
2023/12/30 05:54:33;;;;;;;11.90;1.80;;;4.80;99.90;;;;;;5072355;28;20504;-45
2023/12/30 05:57:00;;;;;;;11.35;2.08;;;4.60;99.90;;;;;;5089887;28;20036;-45
2023/12/30 05:59:26;;;;;;;6.75;2.08;;;4.80;99.90;;;;;;5086458;28;20047;-46
2023/12/30 06:01:52;;;;;;;11.07;2.05;;;4.80;99.90;;;;;;5092404;28;20051;-47
2023/12/30 06:04:18;;;;;;;12.32;1.77;;;4.60;99.90;;;;;;5088499;28;20477;-46
2023/12/30 06:06:44;;;;;;;12.02;2.13;;;4.70;99.90;;;;;;5088892;28;20463;-46
2023/12/30 06:09:10;;;;;;;11.90;1.70;;;4.90;99.90;;;;;;5087304;28;20040;-45
2023/12/30 06:11:36;;;;;;;20.08;3.40;;;4.70;99.90;;;;;;5088008;28;20047;-47
2023/12/30 06:14:01;;;;;;;12.20;1.70;;;4.80;99.90;;;;;;5088329;28;20477;-45
2023/12/30 06:16:27;;;;;;;14.88;2.20;;;5.00;99.90;;;;;;5087109;28;20043;-45
2023/12/30 06:18:53;;;;;;;10.70;1.98;;;4.80;99.90;;;;;;5086366;28;20070;-45
2023/12/30 06:21:18;;;;;;;12.60;2.35;;;5.10;99.90;;;;;;5088190;28;20036;-45
2023/12/30 06:23:44;;;;;;;10.95;1.73;;;4.80;99.90;;;;;;5069260;28;20035;-47
2023/12/30 06:26:09;;;;;;;12.70;1.98;;;4.80;99.90;;;;;;5091630;28;20039;-45
2023/12/30 06:28:35;;;;;;;15.40;2.35;;;4.90;99.90;;;;;;5087336;28;20181;-46
2023/12/30 06:31:00;;;;;;;10.07;1.73;;;4.80;99.90;;;;;;5083597;28;20044;-45
2023/12/30 06:33:26;;;;;;;14.10;2.47;;;4.90;99.90;;;;;;5084812;28;20032;-45
2023/12/30 06:35:52;;;;;;;11.13;1.85;;;;;;;;;;5085957;28;20043;-45
2023/12/30 06:38:18;;;;;;;12.50;2.10;;;4.40;99.90;;;;;;5082897;28;20047;-45
2023/12/30 06:40:45;;;;;;;13.15;2.25;;;4.60;99.90;;;;;;5083475;28;20067;-47
2023/12/30 06:43:11;;;;;;;8.23;1.85;;;4.60;99.90;;;;;;5083471;28;20500;-45
2023/12/30 06:45:38;;;;;;;11.40;1.65;;;4.60;99.90;;;;;;5089629;28;20132;-47
2023/12/30 06:48:04;;;;;;;10.20;2.03;;;4.60;99.90;;;;;;5084806;28;20556;-47
2023/12/30 06:50:30;;;;;;;11.18;2.25;;;4.90;99.90;;;;;;5066173;28;20044;-46
2023/12/30 06:52:56;;;;;;;15.70;2.20;;;4.70;99.90;;;;;;5085717;28;20131;-47
2023/12/30 06:55:22;;;;;;;8.13;1.83;;;4.80;99.90;;;;;;5068448;28;20401;-47
2023/12/30 06:57:48;;;;;;;13.52;1.90;;;4.50;99.90;;;;;;5087619;28;20135;-45
2023/12/30 07:00:14;;;;;;;13.07;2.17;;;4.60;99.90;;;;;;5084172;28;20119;-44
2023/12/30 07:02:41;;;;;;;8.25;1.73;;;4.60;99.90;;;;;;5083501;28;20439;-44
2023/12/30 07:05:08;;;;;;;9.18;2.05;;;4.60;99.90;;;;;;5084141;28;20043;-45
2023/12/30 07:07:34;;;;;;;9.70;1.80;;;4.60;99.90;;;;;;5082929;28;20170;-45
2023/12/30 07:10:00;;;;;;;11.20;1.98;;;4.60;99.90;;;;;;5082609;28;20513;-43
2023/12/30 07:12:25;;;;;;;9.23;1.98;;;4.60;99.90;;;;;;5082581;28;20048;-45
2023/12/30 07:14:51;;;;;;;8.55;2.00;;;4.50;99.90;;;;;;5082005;28;21059;-44
2023/12/30 07:17:17;;;;;;;13.35;2.10;;;4.50;99.90;;;;;;5083124;28;20048;-43
2023/12/30 07:19:42;;;;;;;16.67;2.50;;;4.50;99.90;;;;;;5083393;28;20032;-45
2023/12/30 07:22:08;;;;;;;16.35;2.33;;;4.50;99.90;;;;;;5082065;28;20040;-45
2023/12/30 07:24:34;;;;;;;11.32;2.20;;;4.50;99.90;;;;;;5079689;28;20152;-46
2023/12/30 07:26:59;;;;;;;11.95;1.80;;;4.50;99.90;;;;;;5082873;28;20064;-44
2023/12/30 07:29:25;;;;;;;11.63;1.88;;;4.50;99.90;;;;;;5083193;28;20185;-44
2023/12/30 07:31:50;;;;;;;13.02;2.55;;;4.50;99.90;;;;;;5083545;28;20044;-45
2023/12/30 07:34:20;;;;;;;9.18;1.98;;;4.50;99.90;;;;;;5081987;28;20107;-44
2023/12/30 07:36:46;;;;;;;14.48;2.35;;;4.60;99.90;;;;;;5089435;28;20494;-45
2023/12/30 07:39:13;;;;;;;12.02;2.47;;;4.60;99.90;;;;;;5084409;28;20991;-46
2023/12/30 07:41:38;;;;;;;15.68;2.78;;;4.60;99.90;;;;;;5081842;28;20071;-44
2023/12/30 07:44:04;;;;;;;16.33;3.80;;;4.50;99.90;;;;;;5063949;28;20074;-44
2023/12/30 07:46:30;;;;;;;19.38;4.55;;;4.60;99.90;;;;;;5081871;28;20040;-44
2023/12/30 07:48:55;;;;;;;16.33;4.53;;;4.50;99.90;;;;;;5081387;28;20048;-45
2023/12/30 07:51:21;;;;;;;17.08;5.07;;;4.60;99.90;;;;;;5082239;28;20070;-44
2023/12/30 07:53:47;;;;;;;22.25;6.68;;;4.60;99.90;;;;;;5082066;28;20067;-44
2023/12/30 07:56:12;;;;;;;19.20;6.13;;;4.60;99.90;;;;;;5078641;28;20188;-44
2023/12/30 07:58:39;;;;;;;21.95;6.15;;;4.60;99.90;;;;;;5083484;28;20417;-43
2023/12/30 08:01:05;;;;;;;21.73;6.93;;;4.70;99.90;;;;;;5065864;28;20070;-46
2023/12/30 08:03:31;;;;;;;21.70;6.70;;;4.70;99.90;;;;;;5082796;28;20043;-48
2023/12/30 08:05:57;;;;;;;20.08;7.15;;;4.80;99.90;;;;;;5082945;28;20047;-46
2023/12/30 08:08:22;;;;;;;22.55;7.95;;;4.70;99.90;;;;;;5081593;28;20448;-45
2023/12/30 08:10:48;;;;;;;19.25;6.63;;;4.70;99.90;;;;;;5086423;28;20055;-44
2023/12/30 08:13:16;;;;;;;20.98;7.13;;;4.80;99.90;;;;;;5090131;28;20046;-45
2023/12/30 08:15:41;;;;;;;20.65;7.05;;;4.70;99.90;;;;;;5082762;28;20040;-45
2023/12/30 08:18:07;;;;;;;16.65;6.10;;;4.80;99.90;;;;;;5080908;28;20055;-44
2023/12/30 08:20:33;;;;;;;12.82;5.88;;;4.80;99.90;;;;;;5082019;28;20065;-45
2023/12/30 08:22:58;;;;;;;22.70;5.97;;;4.80;99.90;;;;;;5082019;28;20048;-44
2023/12/30 08:25:24;;;;;;;20.70;5.70;;;4.80;99.90;;;;;;5081195;28;20560;-45
2023/12/30 08:27:50;;;;;;;14.27;5.55;;;4.90;99.90;;;;;;5082797;28;20129;-45
2023/12/30 08:30:15;;;;;;;18.17;5.60;;;4.90;99.90;;;;;;5081157;28;20035;-44
2023/12/30 08:32:41;;;;;;;18.30;5.88;;;4.90;99.90;;;;;;5080525;28;20028;-45
2023/12/30 08:35:08;;;;;;;16.60;5.00;;;4.80;99.90;;;;;;5062917;28;20086;-45
2023/12/30 08:37:35;;;;;;;14.83;6.03;;;4.80;99.90;;;;;;5081530;28;20099;-44
2023/12/30 08:40:06;;;;;;;14.15;5.05;;;4.90;99.90;;;;;;5063506;28;20058;-43
2023/12/30 08:42:34;;;;;;;15.63;5.15;;;4.90;99.90;;;;;;5081445;28;20446;-44
2023/12/30 08:45:01;;;;;;;18.23;5.30;;;4.90;99.90;;;;;;5081470;28;20476;-45
2023/12/30 08:47:28;;;;;;;20.65;5.85;;;5.00;99.90;;;;;;5080919;28;20052;-43
2023/12/30 08:49:54;;;;;;;20.83;5.63;;;5.00;99.90;;;;;;5080496;28;20397;-44
2023/12/30 08:52:20;;;;;;;18.90;6.10;;;5.00;99.90;;;;;;5081526;28;20038;-43
2023/12/30 08:54:45;;;;;;;20.88;6.78;;;5.10;99.90;;;;;;5081729;28;20039;-44
2023/12/30 08:57:11;;;;;;;18.33;7.00;;;5.10;99.90;;;;;;5081754;28;20039;-45
2023/12/30 08:59:38;;;;;;;22.08;7.72;;;5.10;99.90;;;;;;5082401;28;20032;-46
2023/12/30 09:02:04;;;;;;;24.55;8.73;;;5.20;99.90;;;;;;5085513;28;20089;-44
2023/12/30 09:04:29;;;;;;;19.00;7.97;;;5.10;99.90;;;;;;5064708;28;20435;-43
2023/12/30 09:06:55;;;;;;;20.90;8.13;;;5.30;99.90;;;;;;5085358;28;20038;-44
2023/12/30 09:09:21;;;;;;;21.15;8.70;;;5.30;99.90;;;;;;5085305;28;20127;-45
2023/12/30 09:11:46;;;;;;;22.20;9.40;;;5.30;99.90;;;;;;5083836;28;20040;-45
2023/12/30 09:14:12;;;;;;;23.75;9.55;;;5.40;99.90;;;;;;5084835;28;20040;-45
2023/12/30 09:16:37;;;;;;;23.00;8.63;;;5.40;99.90;;;;;;5084781;28;20151;-45
2023/12/30 09:19:03;;;;;;;20.25;9.70;;;5.40;99.90;;;;;;5084523;28;20127;-44
2023/12/30 09:21:29;;;;;;;22.35;8.15;;;5.50;99.90;;;;;;5084074;28;20637;-45
2023/12/30 09:23:56;;;;;;;23.88;9.52;;;5.50;99.90;;;;;;5084812;28;20407;-44
2023/12/30 09:26:21;;;;;;;20.15;8.32;;;5.50;99.90;;;;;;5067195;28;20247;-46
2023/12/30 09:28:47;;;;;;;22.40;8.48;;;5.50;99.90;;;;;;5083899;28;20566;-45
2023/12/30 09:31:13;;;;;;;20.33;7.32;;;5.60;99.90;;;;;;5085673;28;20032;-47
2023/12/30 09:33:39;;;;;;;16.95;6.90;;;5.60;99.90;;;;;;5084994;28;20055;-45
2023/12/30 09:36:05;;;;;;;16.25;6.65;;;5.60;99.90;;;;;;5085068;28;20056;-44
2023/12/30 09:38:31;;;;;;;15.80;6.10;;;5.70;99.90;;;;;;5083664;28;20047;-46
2023/12/30 09:40:56;;;;;;;17.80;6.30;;;5.70;99.90;;;;;;5084029;28;20048;-47
2023/12/30 09:43:24;;;;;;;23.88;6.40;;;5.80;99.90;;;;;;5083445;28;20501;-45
2023/12/30 09:45:52;;;;;;;18.08;5.53;;;5.80;99.90;;;;;;5090303;28;20040;-50
2023/12/30 09:48:27;;;;;;;20.65;5.45;;;5.90;99.90;;;;;;5088924;28;20040;-44
2023/12/30 09:50:58;;;;;;;14.93;4.82;;;5.90;99.90;;;;;;5092868;28;20419;-46
2023/12/30 09:53:25;;;;;;;14.50;4.78;;;6.00;99.90;;;;;;5093167;28;20081;-45
2023/12/30 09:55:51;;;;;;;17.38;4.57;;;6.00;99.90;;;;;;5093024;28;20072;-45
2023/12/30 09:58:21;;;;;;;12.32;5.07;;;6.00;99.90;;;;;;5092531;28;20075;-44
2023/12/30 10:00:47;;;;;;;12.45;4.13;;;6.10;99.90;;;;;;5091835;28;20089;-45
2023/12/30 10:03:14;;;;;;;24.27;5.18;;;6.10;99.90;;;;;;5097902;28;20040;-45
2023/12/30 10:05:40;;;;;;;12.85;4.10;;;6.10;99.90;;;;;;5092907;28;20567;-44
2023/12/30 10:08:07;;;;;;;11.45;4.00;;;6.20;99.90;;;;;;5093749;28;20040;-45
2023/12/30 10:10:46;;;;;;;15.43;3.70;;;6.20;99.90;;;;;;5094516;28;20094;-44
2023/12/30 10:13:14;;;;;;;17.08;4.47;;;6.20;99.90;;;;;;5093810;28;20071;-45
2023/12/30 10:15:40;;;;;;;11.15;3.20;;;6.20;99.90;;;;;;5093033;28;20055;-45
2023/12/30 10:18:07;;;;;;;15.55;3.67;;;6.30;99.90;;;;;;5093738;28;20411;-45
2023/12/30 10:20:44;;;;;;;13.40;3.80;;;6.30;99.90;;;;;;5094093;28;20051;-44
2023/12/30 10:23:10;;;;;;;11.82;2.88;;;6.40;99.90;;;;;;5093917;28;20031;-44
2023/12/30 10:25:36;;;;;;;14.80;3.13;;;6.40;99.90;;;;;;5090381;28;20028;-43
2023/12/30 10:28:02;;;;;;;14.60;2.80;;;6.50;99.90;;;;;;5073618;28;20179;-44
2023/12/30 10:30:31;;;;;;;11.50;2.63;;;6.50;99.90;;;;;;5091788;28;20054;-45
2023/12/30 10:33:08;;;;;;;12.98;3.95;;;6.50;99.90;;;;;;5092399;28;20040;-44
2023/12/30 10:35:34;;;;;;;13.15;3.15;;;6.60;99.90;;;;;;5092429;28;20047;-45
2023/12/30 10:38:03;;;;;;;14.75;3.08;;;6.60;99.90;;;;;;5092379;28;20032;-45
2023/12/30 10:40:29;;;;;;;11.20;2.65;;;6.70;99.90;;;;;;5092801;28;20056;-45
2023/12/30 10:42:55;;;;;;;15.18;3.03;;;6.70;99.90;;;;;;5095014;28;20092;-45
2023/12/30 10:45:21;;;;;;;12.95;3.20;;;6.80;99.90;;;;;;5093047;28;20126;-44
2023/12/30 10:47:49;;;;;;;8.70;2.75;;;6.80;99.90;;;;;;5091963;28;20032;-44
2023/12/30 10:50:14;;;;;;;14.77;3.40;;;6.90;99.90;;;;;;5093141;28;20063;-45
2023/12/30 10:53:03;;;;;;;14.10;3.38;;;6.90;99.90;;;;;;5092925;28;20470;-45
2023/12/30 10:55:33;;;;;;;12.80;3.33;;;7.00;99.90;;;;;;5091187;28;20465;-46
2023/12/30 10:58:16;;;;;;;14.07;3.35;;;7.00;99.90;;;;;;5092377;28;20044;-44
2023/12/30 11:00:43;;;;;;;14.57;4.18;;;7.10;99.90;;;;;;5092457;28;20048;-46
2023/12/30 11:03:09;;;;;;;14.00;3.75;;;7.10;99.90;;;;;;5091648;28;20556;-45
2023/12/30 11:05:43;;;;;;;16.42;3.55;;;7.10;99.90;;;;;;5075601;28;20552;-47
2023/12/30 11:08:09;;;;;;;12.68;3.35;;;7.10;99.90;;;;;;5095642;28;20504;-46
2023/12/30 11:10:35;;;;;;;14.20;3.72;;;7.20;99.90;;;;;;5093134;28;20485;-45
2023/12/30 11:13:01;;;;;;;14.43;3.70;;;7.20;99.90;;;;;;5075132;28;20039;-47
2023/12/30 11:15:30;;;;;;;17.80;4.22;;;7.30;99.90;;;;;;5091718;28;20036;-47
2023/12/30 11:17:57;;;;;;;16.40;3.50;;;7.30;99.90;;;;;;5091568;28;20052;-46
2023/12/30 11:20:32;;;;;;;17.83;4.10;;;7.30;99.90;;;;;;5093029;28;20055;-45
2023/12/30 11:23:02;;;;;;;17.58;4.38;;;7.40;99.90;;;;;;5086109;28;20048;-47
2023/12/30 11:25:45;;;;;;;14.93;3.63;;;7.40;99.90;;;;;;5087662;28;20041;-47
2023/12/30 11:28:14;;;;;;;11.68;3.33;;;7.40;99.90;;;;;;5087794;28;20044;-45
2023/12/30 11:30:43;;;;;;;11.02;3.90;;;7.40;99.90;;;;;;5091067;28;20043;-45
2023/12/30 11:33:10;;;;;;;14.50;4.00;;;7.40;99.90;;;;;;5090642;28;20045;-45
2023/12/30 11:35:37;;;;;;;15.15;4.28;;;7.40;99.90;;;;;;5092019;28;20139;-45
2023/12/30 11:38:09;;;;;;;18.15;4.03;;;7.50;99.90;;;;;;5088368;28;20401;-45
2023/12/30 11:40:42;;;;;;;14.82;3.80;;;7.50;99.90;;;;;;5090695;28;20059;-45
2023/12/30 11:43:11;;;;;;;12.43;4.07;;;7.60;99.90;;;;;;5089725;28;20044;-45
2023/12/30 11:45:37;;;;;;;15.88;3.60;;;7.70;99.90;;;;;;5091599;28;20051;-47
2023/12/30 11:48:03;;;;;;;12.98;3.80;;;7.70;99.90;;;;;;5091444;28;20036;-45
2023/12/30 11:50:29;;;;;;;14.63;4.53;;;7.70;99.90;;;;;;5090463;28;20036;-45
2023/12/30 11:52:56;;;;;;;13.52;4.38;;;7.70;99.90;;;;;;5075001;28;20081;-47
2023/12/30 11:55:22;;;;;;;15.90;4.13;;;7.80;99.90;;;;;;5091323;28;20040;-45
2023/12/30 11:57:48;;;;;;;18.35;4.57;;;7.90;99.90;;;;;;5091824;28;20050;-44
2023/12/30 12:00:14;;;;;;;15.38;4.70;;;8.00;99.90;;;;;;5091971;28;20036;-45
2023/12/30 12:02:40;;;;;;;18.58;5.25;;;8.00;99.90;;;;;;5077207;28;20511;-44
2023/12/30 12:05:06;;;;;;;16.00;4.32;;;8.00;99.90;;;;;;5090581;28;20156;-45
2023/12/30 12:07:33;;;;;;;15.02;4.40;;;8.10;99.90;;;;;;5091035;28;20083;-44
2023/12/30 12:09:59;;;;;;;13.57;4.30;;;8.10;99.90;;;;;;5091911;28;20040;-49
2023/12/30 12:12:25;;;;;;;15.10;4.50;;;8.10;99.90;;;;;;5093830;28;20070;-44
2023/12/30 12:14:51;;;;;;;14.13;4.60;;;8.20;99.90;;;;;;5073334;28;20539;-45
2023/12/30 12:17:20;;;;;;;13.55;5.05;;;8.10;99.90;;;;;;5086772;28;20036;-47
2023/12/30 12:19:47;;;;;;;15.60;3.50;;;8.20;99.90;;;;;;5073148;28;20410;-45
2023/12/30 12:22:13;;;;;;;17.40;4.40;;;8.20;99.90;;;;;;5091691;28;20032;-45
2023/12/30 12:24:40;;;;;;;15.00;4.03;;;8.20;99.90;;;;;;5090706;28;20047;-45
2023/12/30 12:27:05;;;;;;;20.83;4.78;;;8.20;99.90;;;;;;5087059;28;20055;-44
2023/12/30 12:29:31;;;;;;;17.02;4.63;;;8.30;99.90;;;;;;5089796;28;20052;-46
2023/12/30 12:31:57;;;;;;;14.52;4.60;;;8.30;99.90;;;;;;5090332;28;20675;-46
2023/12/30 12:34:24;;;;;;;15.68;4.45;;;8.40;99.90;;;;;;5089603;28;20048;-47
2023/12/30 12:36:50;;;;;;;19.97;4.93;;;8.40;99.90;;;;;;5089156;28;20059;-47
2023/12/30 12:39:17;;;;;;;17.27;4.65;;;8.40;99.90;;;;;;5088086;28;20059;-46
2023/12/30 12:41:45;;;;;;;17.48;5.55;;;8.40;99.90;;;;;;5070851;28;20523;-45
2023/12/30 12:44:10;;;;;;;17.02;5.00;;;8.50;99.90;;;;;;5088607;28;20854;-46
2023/12/30 12:46:36;;;;;;;18.25;5.50;;;8.50;99.90;;;;;;5090260;28;20131;-45